Time;durP1;ratioP1;P1;durP2;ratioP2;P2;SDS_P1;SDS_P2;PMS_P1;PMS_P2;Temp;Humidity;BMP_temperature;BMP_pressure;BME280_temperature;BME280_humidity;BME280_pressure;Samples;Min_cycle;Max_cycle;Signal;HPM_P1;HPM_P2
2022/11/06 00:02:27;;;;;;;85.75;36.58;;;2.10;99.90;;;;;;6246989;23;20047;-85
2022/11/06 00:08:44;;;;;;;86.82;38.83;;;2.10;99.90;;;;;;6246450;23;20598;-84
2022/11/06 00:11:32;;;;;;;87.50;38.60;;;2.20;99.90;;;;;;6245151;23;20056;-85
2022/11/06 00:14:19;;;;;;;86.82;39.60;;;2.30;99.90;;;;;;6246936;23;20091;-86
2022/11/06 00:17:08;;;;;;;97.88;40.70;;;2.30;99.90;;;;;;6247531;23;20035;-84
2022/11/06 00:19:59;;;;;;;81.57;35.90;;;2.20;99.90;;;;;;6249604;22;20055;-86
2022/11/06 00:22:47;;;;;;;89.35;40.42;;;2.20;99.90;;;;;;6249036;23;20103;-86
2022/11/06 00:25:39;;;;;;;99.32;43.70;;;2.20;99.90;;;;;;6255744;22;20046;-84
2022/11/06 00:28:26;;;;;;;103.78;46.75;;;2.30;99.90;;;;;;6254670;22;20051;-84
2022/11/06 00:31:16;;;;;;;93.90;43.63;;;2.30;99.90;;;;;;6251304;23;20442;-84
2022/11/06 00:34:08;;;;;;;100.22;44.45;;;2.30;99.90;;;;;;6247618;22;20074;-84
2022/11/06 00:36:56;;;;;;;88.40;42.25;;;2.10;99.90;;;;;;6245226;23;20117;-84
2022/11/06 00:39:43;;;;;;;91.82;41.55;;;2.00;99.90;;;;;;6245388;23;20102;-85
2022/11/06 00:42:33;;;;;;;95.45;38.85;;;1.90;99.90;;;;;;6247255;23;20042;-85
2022/11/06 00:45:20;;;;;;;94.47;38.85;;;1.70;99.90;;;;;;6247205;23;20032;-85
2022/11/06 00:48:07;;;;;;;81.30;35.60;;;1.60;99.90;;;;;;6246656;23;20098;-84
2022/11/06 00:50:54;;;;;;;79.72;35.00;;;1.60;99.90;;;;;;6247591;23;20103;-85
2022/11/06 00:53:42;;;;;;;83.45;36.20;;;1.60;99.90;;;;;;6251052;23;20051;-85
2022/11/06 00:56:31;;;;;;;79.28;35.47;;;1.60;99.90;;;;;;6252394;23;20024;-84
2022/11/06 00:59:20;;;;;;;90.53;39.33;;;1.70;99.90;;;;;;6250717;23;20030;-84
2022/11/06 01:02:07;;;;;;;84.22;36.35;;;1.90;99.90;;;;;;6246752;22;20089;-85
2022/11/06 01:04:55;;;;;;;81.82;38.10;;;1.90;99.90;;;;;;6246911;23;20122;-83
2022/11/06 01:07:43;;;;;;;88.38;37.80;;;2.00;99.90;;;;;;6247377;22;20485;-85
2022/11/06 01:10:32;;;;;;;111.72;47.20;;;1.90;99.90;;;;;;6246899;23;20030;-84
2022/11/06 01:13:20;;;;;;;92.97;40.03;;;1.90;99.90;;;;;;6248702;22;20043;-85
2022/11/06 01:16:11;;;;;;;91.70;39.13;;;2.00;99.90;;;;;;6248691;23;20103;-84
2022/11/06 01:19:00;;;;;;;77.95;36.95;;;2.00;99.90;;;;;;6248982;23;20078;-85
2022/11/06 01:21:51;;;;;;;87.22;38.83;;;2.10;99.90;;;;;;6249994;22;20035;-85
2022/11/06 01:24:38;;;;;;;91.00;37.97;;;2.30;99.90;;;;;;6246451;23;20109;-84
2022/11/06 01:27:26;;;;;;;81.05;37.63;;;2.40;99.90;;;;;;6247579;23;20103;-84
2022/11/06 01:30:13;;;;;;;86.82;37.17;;;2.50;99.90;;;;;;6248241;23;20558;-84
2022/11/06 01:33:00;;;;;;;81.68;37.85;;;2.60;99.90;;;;;;6248024;22;20024;-84
2022/11/06 01:35:49;;;;;;;87.07;37.80;;;2.60;99.90;;;;;;6248223;23;20420;-84
2022/11/06 01:38:40;;;;;;;84.78;37.42;;;2.60;99.90;;;;;;6249678;22;20098;-84
2022/11/06 01:41:33;;;;;;;79.88;36.65;;;2.60;99.90;;;;;;6244935;23;20090;-83
2022/11/06 01:44:34;;;;;;;92.82;38.08;;;2.60;99.90;;;;;;6247898;22;20028;-84
2022/11/06 01:47:27;;;;;;;82.97;36.78;;;2.50;99.90;;;;;;6251340;22;20435;-85
2022/11/06 01:50:15;;;;;;;;;;;2.50;99.90;;;;;;6246589;23;20106;-84
2022/11/06 01:53:03;;;;;;;85.15;34.95;;;2.50;99.90;;;;;;6248313;22;19919;-84
2022/11/06 01:55:57;;;;;;;85.35;35.22;;;2.50;99.90;;;;;;6247686;23;20103;-84
2022/11/06 01:58:47;;;;;;;82.75;36.28;;;2.40;99.90;;;;;;6246191;23;20055;-84
2022/11/06 02:01:34;;;;;;;84.65;36.67;;;2.30;99.90;;;;;;6247837;23;20099;-84
2022/11/06 02:04:24;;;;;;;80.93;37.00;;;2.40;99.90;;;;;;6247010;23;20404;-83
2022/11/06 02:07:11;;;;;;;84.20;37.72;;;2.50;99.90;;;;;;6246956;23;20023;-84
2022/11/06 02:09:58;;;;;;;81.97;36.75;;;2.50;99.90;;;;;;6247812;23;20093;-83
2022/11/06 02:13:16;;;;;;;80.80;36.13;;;2.40;99.90;;;;;;6247944;23;20078;-84
2022/11/06 02:16:08;;;;;;;74.68;34.55;;;2.40;99.90;;;;;;6246047;23;20040;-84
2022/11/06 02:19:01;;;;;;;78.72;35.63;;;2.30;99.90;;;;;;6249343;22;20043;-84
2022/11/06 02:21:51;;;;;;;;;;;2.30;99.90;;;;;;6244731;23;20023;-84
2022/11/06 02:25:01;;;;;;;73.38;32.33;;;2.30;99.90;;;;;;6246165;23;19915;-85
2022/11/06 02:28:18;;;;;;;71.10;32.85;;;2.40;99.90;;;;;;6247681;22;20023;-84
2022/11/06 02:31:17;;;;;;;76.32;33.85;;;2.30;99.90;;;;;;6227361;22;20020;-85
2022/11/06 02:34:12;;;;;;;73.68;33.65;;;2.30;99.90;;;;;;6246330;23;20035;-84
2022/11/06 02:37:23;;;;;;;73.18;32.72;;;2.30;99.90;;;;;;6247564;23;20116;-84
2022/11/06 02:40:14;;;;;;;76.43;32.95;;;2.20;99.90;;;;;;6247224;23;20118;-85
2022/11/06 02:43:06;;;;;;;71.18;31.42;;;2.00;99.90;;;;;;6246187;23;20109;-85
2022/11/06 02:45:58;;;;;;;84.20;33.30;;;2.00;99.90;;;;;;6248835;22;20342;-84
2022/11/06 02:48:52;;;;;;;77.15;30.48;;;2.00;99.90;;;;;;6245261;23;20035;-85
2022/11/06 02:51:47;;;;;;;61.75;29.77;;;1.90;99.90;;;;;;6249119;22;20024;-85
2022/11/06 02:54:39;;;;;;;65.57;28.58;;;1.80;99.90;;;;;;6247456;23;20099;-84
2022/11/06 02:57:30;;;;;;;69.78;30.13;;;1.60;99.90;;;;;;6247478;23;20495;-84
2022/11/06 03:00:18;;;;;;;46.80;20.95;;;1.50;99.90;;;;;;6247523;22;20056;-84
2022/11/06 03:03:14;;;;;;;66.68;30.00;;;1.40;99.90;;;;;;6245928;23;20095;-85
2022/11/06 03:06:14;;;;;;;79.18;31.60;;;1.30;99.90;;;;;;6244462;23;20419;-84
2022/11/06 03:09:06;;;;;;;68.22;31.55;;;1.10;99.90;;;;;;6247439;23;20125;-85
2022/11/06 03:12:19;;;;;;;51.47;22.20;;;1.10;99.90;;;;;;6245250;23;20103;-85
2022/11/06 03:15:26;;;;;;;62.83;28.60;;;1.00;99.90;;;;;;6249115;22;20236;-85
2022/11/06 03:18:37;;;;;;;64.22;27.90;;;1.00;99.90;;;;;;6247453;23;20032;-84
2022/11/06 03:21:33;;;;;;;65.75;28.30;;;0.90;99.90;;;;;;6248348;22;20116;-84
2022/11/06 03:24:29;;;;;;;66.97;27.08;;;0.90;99.90;;;;;;6226057;23;20050;-84
2022/11/06 03:27:25;;;;;;;65.75;26.65;;;0.70;99.90;;;;;;6247130;23;20035;-85
2022/11/06 03:30:13;;;;;;;63.63;28.08;;;0.70;99.90;;;;;;6247134;22;20028;-85
2022/11/06 03:33:39;;;;;;;66.07;28.15;;;0.60;99.90;;;;;;6247315;23;20024;-85
2022/11/06 03:36:43;;;;;;;59.30;26.40;;;0.50;99.90;;;;;;6247072;23;20099;-85
2022/11/06 03:39:39;;;;;;;65.13;30.85;;;0.50;99.90;;;;;;6247850;22;20059;-85
2022/11/06 03:42:29;;;;;;;67.32;30.23;;;0.50;99.90;;;;;;6250151;22;20286;-85
2022/11/06 03:45:20;;;;;;;59.35;25.98;;;0.40;99.90;;;;;;6247446;23;20103;-85
2022/11/06 03:48:18;;;;;;;;;;;0.30;99.90;;;;;;6247522;22;20107;-84
2022/11/06 03:51:19;;;;;;;63.97;26.52;;;0.40;99.90;;;;;;6248207;22;19990;-85
2022/11/06 03:54:16;;;;;;;79.70;27.45;;;0.40;99.90;;;;;;6247249;23;20020;-84
2022/11/06 03:57:12;;;;;;;62.03;27.10;;;0.40;99.90;;;;;;6247092;22;20032;-84
2022/11/06 04:00:07;;;;;;;67.07;27.05;;;0.40;99.90;;;;;;6244254;23;20035;-85
2022/11/06 04:03:05;;;;;;;66.07;27.10;;;0.30;99.90;;;;;;6243930;23;20079;-84
2022/11/06 04:06:10;;;;;;;58.65;26.05;;;0.30;99.90;;;;;;6245747;23;20028;-85
2022/11/06 04:15:20;;;;;;;61.28;26.90;;;0.20;99.90;;;;;;6249047;23;20032;-85
2022/11/06 04:18:12;;;;;;;60.15;25.75;;;0.20;99.90;;;;;;6245155;23;20086;-85
2022/11/06 04:21:23;;;;;;;;;;;0.20;99.90;;;;;;6247178;23;20035;-85
2022/11/06 04:28:11;;;;;;;60.42;25.08;;;0.00;99.90;;;;;;6245798;23;20052;-84
2022/11/06 04:31:15;;;;;;;58.35;24.40;;;0.00;99.90;;;;;;6246584;22;20309;-85
2022/11/06 04:34:12;;;;;;;55.92;26.55;;;-0.10;99.90;;;;;;6244478;23;20111;-85
2022/11/06 04:37:09;;;;;;;60.42;27.35;;;-0.10;99.90;;;;;;6247149;22;20047;-85
2022/11/06 04:40:07;;;;;;;59.45;24.77;;;-0.20;99.90;;;;;;6245739;23;20107;-84
2022/11/06 04:42:59;;;;;;;58.25;25.80;;;-0.30;99.90;;;;;;6243442;23;20078;-85
2022/11/06 04:45:51;;;;;;;66.72;26.55;;;-0.30;99.90;;;;;;6247896;22;20381;-84
2022/11/06 04:48:39;;;;;;;83.05;28.90;;;-0.30;99.90;;;;;;6249614;22;20031;-85
2022/11/06 04:51:34;;;;;;;69.78;28.20;;;-0.40;99.90;;;;;;6250310;22;20435;-85
2022/11/06 04:54:21;;;;;;;69.07;27.10;;;-0.40;99.90;;;;;;6250979;22;20021;-85
2022/11/06 04:57:09;;;;;;;76.90;28.30;;;-0.50;99.90;;;;;;6248924;23;20034;-85
2022/11/06 04:59:59;;;;;;;65.13;25.33;;;-0.50;99.90;;;;;;6246771;23;20076;-85
2022/11/06 05:02:46;;;;;;;71.65;27.08;;;-0.60;99.90;;;;;;6246749;23;20273;-85
2022/11/06 05:05:33;;;;;;;76.20;27.77;;;-0.50;99.90;;;;;;6249699;22;20034;-85
2022/11/06 05:08:22;;;;;;;65.38;27.50;;;-0.60;99.90;;;;;;6248757;23;20131;-85
2022/11/06 05:11:09;;;;;;;64.43;25.13;;;-0.60;99.90;;;;;;6249035;23;20511;-85
2022/11/06 05:13:59;;;;;;;56.65;25.33;;;-0.50;99.90;;;;;;6245789;23;20111;-84
2022/11/06 05:16:46;;;;;;;60.70;27.05;;;-0.50;99.90;;;;;;6246699;23;20051;-85
2022/11/06 05:19:33;;;;;;;77.32;29.80;;;-0.30;99.90;;;;;;6248348;23;20028;-85
2022/11/06 05:25:34;;;;;;;59.72;26.27;;;-0.10;99.90;;;;;;6248820;23;20112;-85
2022/11/06 05:28:21;;;;;;;60.88;25.25;;;-0.10;99.90;;;;;;6248421;23;20051;-85
2022/11/06 05:31:13;;;;;;;62.92;28.35;;;0.00;99.90;;;;;;6249213;22;20024;-84
2022/11/06 05:34:00;;;;;;;49.40;25.17;;;0.00;99.90;;;;;;6245248;23;20051;-85
2022/11/06 05:36:47;;;;;;;60.83;26.35;;;0.10;99.90;;;;;;6248387;23;20024;-85
2022/11/06 05:39:37;;;;;;;51.83;24.35;;;0.00;99.90;;;;;;6248401;23;20126;-85
2022/11/06 05:42:28;;;;;;;53.03;23.60;;;-0.10;99.90;;;;;;6247424;23;20269;-86
2022/11/06 05:45:15;;;;;;;57.70;23.83;;;-0.10;99.90;;;;;;6246264;23;20042;-85
2022/11/06 05:48:02;;;;;;;56.03;24.00;;;-0.10;99.90;;;;;;6247520;23;20492;-85
2022/11/06 05:50:49;;;;;;;51.47;21.65;;;-0.10;99.90;;;;;;6246617;23;20103;-84
2022/11/06 05:53:37;;;;;;;50.60;23.45;;;-0.10;99.90;;;;;;6247859;23;20035;-85
2022/11/06 05:56:24;;;;;;;54.95;24.63;;;-0.10;99.90;;;;;;6248343;23;20024;-85
2022/11/06 05:59:12;;;;;;;54.83;24.83;;;0.00;99.90;;;;;;6246404;23;20171;-85
2022/11/06 06:01:59;;;;;;;55.30;24.63;;;0.20;99.90;;;;;;6246130;23;20095;-85
2022/11/06 06:04:47;;;;;;;46.53;23.67;;;0.30;99.90;;;;;;6248913;22;20034;-85
2022/11/06 06:07:34;;;;;;;64.63;27.17;;;0.20;99.90;;;;;;6248314;23;20047;-85
2022/11/06 06:10:21;;;;;;;62.33;26.90;;;0.20;99.90;;;;;;6248998;22;20075;-85
2022/11/06 06:13:08;;;;;;;60.22;27.55;;;0.30;99.90;;;;;;6248154;23;20016;-84
2022/11/06 06:16:00;;;;;;;61.92;27.30;;;0.30;99.90;;;;;;6248842;22;20103;-84
2022/11/06 06:18:50;;;;;;;51.53;24.00;;;0.40;99.90;;;;;;6245197;23;20028;-85
2022/11/06 06:21:37;;;;;;;55.22;24.77;;;0.40;99.90;;;;;;6247088;23;20106;-86
2022/11/06 06:24:24;;;;;;;51.85;23.95;;;0.40;99.90;;;;;;6244642;23;20205;-85
2022/11/06 06:27:12;;;;;;;58.97;24.65;;;0.40;99.90;;;;;;6246669;23;20035;-86
2022/11/06 06:30:01;;;;;;;57.05;25.83;;;0.30;99.90;;;;;;6247933;23;20098;-85
2022/11/06 06:32:52;;;;;;;53.60;25.48;;;0.20;99.90;;;;;;6246913;23;20292;-83
2022/11/06 06:35:41;;;;;;;51.85;23.65;;;0.10;99.90;;;;;;6247688;22;20373;-83
2022/11/06 06:38:28;;;;;;;47.75;23.98;;;-0.10;99.90;;;;;;6247321;23;20038;-83
2022/11/06 06:41:16;;;;;;;46.80;23.27;;;0.00;99.90;;;;;;6247141;23;20046;-82
2022/11/06 06:44:03;;;;;;;51.88;25.30;;;0.00;99.90;;;;;;6249114;23;20032;-83
2022/11/06 06:46:50;;;;;;;51.50;24.65;;;0.00;99.90;;;;;;6247063;23;20425;-85
2022/11/06 06:49:37;;;;;;;52.83;24.85;;;0.00;99.90;;;;;;6248263;22;20020;-85
2022/11/06 06:52:24;;;;;;;65.28;27.20;;;0.00;99.90;;;;;;6246087;23;20051;-85
2022/11/06 06:55:11;;;;;;;57.63;27.60;;;0.10;99.90;;;;;;6245976;23;20387;-85
2022/11/06 06:57:59;;;;;;;58.22;25.33;;;0.20;99.90;;;;;;6245866;23;20038;-84
2022/11/06 07:00:46;;;;;;;52.20;25.15;;;0.20;99.90;;;;;;6244679;23;20334;-85
2022/11/06 07:03:33;;;;;;;58.38;25.70;;;0.30;99.90;;;;;;6247057;23;20055;-85
2022/11/06 07:06:21;;;;;;;51.22;25.33;;;0.40;99.90;;;;;;6246577;23;20441;-85
2022/11/06 07:09:08;;;;;;;162.60;36.17;;;0.70;99.90;;;;;;6248271;22;20506;-86
2022/11/06 07:11:56;;;;;;;68.50;28.48;;;1.20;99.90;;;;;;6244230;23;20028;-86
2022/11/06 07:14:43;;;;;;;63.83;27.90;;;1.30;99.90;;;;;;6244073;23;20048;-86
2022/11/06 07:17:30;;;;;;;70.15;29.42;;;1.30;99.90;;;;;;6247331;23;20107;-85
2022/11/06 07:20:22;;;;;;;65.93;26.42;;;1.30;99.90;;;;;;6248518;22;20035;-85
2022/11/06 07:23:12;;;;;;;79.07;29.63;;;1.10;99.90;;;;;;6247217;23;20028;-84
2022/11/06 07:25:59;;;;;;;78.15;29.52;;;1.10;99.90;;;;;;6244686;23;20036;-84
2022/11/06 07:28:46;;;;;;;74.40;30.83;;;1.20;99.90;;;;;;6245154;23;20062;-85
2022/11/06 07:31:36;;;;;;;86.45;31.95;;;1.40;99.90;;;;;;6244529;23;20020;-85
2022/11/06 07:34:26;;;;;;;72.93;31.98;;;1.40;99.90;;;;;;6247501;22;20074;-84
2022/11/06 07:37:13;;;;;;;84.85;32.67;;;1.50;99.90;;;;;;6246995;22;20039;-84
2022/11/06 07:40:03;;;;;;;85.25;33.28;;;1.60;99.90;;;;;;6246613;23;20051;-84
2022/11/06 07:43:26;;;;;;;79.47;31.95;;;1.90;99.90;;;;;;6245806;23;20099;-85
2022/11/06 07:46:16;;;;;;;71.50;30.88;;;1.90;99.90;;;;;;6210147;22;20104;-85
2022/11/06 07:49:03;;;;;;;84.43;31.17;;;1.90;99.90;;;;;;6247827;23;20027;-84
2022/11/06 07:51:51;;;;;;;70.55;30.90;;;1.90;99.90;;;;;;6249950;22;20482;-85
2022/11/06 07:54:47;;;;;;;75.07;31.85;;;2.00;99.90;;;;;;6252646;22;20081;-84
2022/11/06 07:57:37;;;;;;;67.30;29.08;;;2.20;99.90;;;;;;6252531;23;20086;-84
2022/11/06 08:00:24;;;;;;;62.50;28.35;;;2.30;99.90;;;;;;6247771;23;20139;-85
2022/11/06 08:03:18;;;;;;;64.43;29.25;;;2.40;99.90;;;;;;6248414;22;20077;-84
2022/11/06 08:06:11;;;;;;;62.38;29.08;;;2.50;99.90;;;;;;6247154;22;20090;-85
2022/11/06 08:09:00;;;;;;;66.63;29.08;;;2.50;99.90;;;;;;6224169;23;20074;-84
2022/11/06 08:11:55;;;;;;;64.57;31.08;;;2.60;99.90;;;;;;6245945;23;20431;-85
2022/11/06 08:14:45;;;;;;;68.55;31.63;;;2.70;99.90;;;;;;6244507;23;20380;-85
2022/11/06 08:17:50;;;;;;;64.97;33.15;;;2.70;99.90;;;;;;6247603;22;20315;-86
2022/11/06 08:20:56;;;;;;;67.32;31.98;;;3.00;99.90;;;;;;6243730;23;20076;-85
2022/11/06 08:23:46;;;;;;;69.45;30.45;;;3.40;99.90;;;;;;6246766;23;20095;-83
2022/11/06 08:26:33;;;;;;;52.45;26.70;;;3.70;99.90;;;;;;6245831;22;20056;-84
2022/11/06 08:29:20;;;;;;;58.92;27.98;;;4.20;99.90;;;;;;6245423;23;20078;-83
2022/11/06 08:32:21;;;;;;;64.95;37.80;;;4.70;99.90;;;;;;6246796;23;20462;-83
2022/11/06 08:35:09;;;;;;;47.00;25.75;;;5.00;99.90;;;;;;6247064;22;20024;-84
2022/11/06 08:38:01;;;;;;;42.80;22.55;;;5.70;99.90;;;;;;6247117;22;20099;-84
2022/11/06 08:40:49;;;;;;;40.85;22.42;;;6.00;99.90;;;;;;6247075;23;20404;-84
2022/11/06 08:43:51;;;;;;;40.17;22.23;;;5.60;99.90;;;;;;6248193;22;20025;-85
2022/11/06 08:46:41;;;;;;;42.85;23.60;;;5.40;99.90;;;;;;6247599;23;20039;-86
2022/11/06 08:49:39;;;;;;;51.60;24.33;;;5.30;99.90;;;;;;6247141;23;20039;-86
2022/11/06 08:52:27;;;;;;;41.88;24.00;;;5.40;99.90;;;;;;6247556;23;20458;-86
2022/11/06 08:55:20;;;;;;;38.00;22.08;;;5.80;99.90;;;;;;6247357;23;20439;-86
2022/11/06 08:58:12;;;;;;;32.22;19.15;;;6.10;99.90;;;;;;6248614;22;20024;-85
2022/11/06 09:01:00;;;;;;;32.88;19.90;;;6.10;99.90;;;;;;6247928;23;20024;-86
2022/11/06 09:03:53;;;;;;;23.85;16.42;;;6.40;99.90;;;;;;6247761;23;20143;-85
2022/11/06 09:06:49;;;;;;;20.23;13.60;;;6.60;99.90;;;;;;6248224;22;20024;-85
2022/11/06 09:09:46;;;;;;;15.45;10.48;;;7.00;99.90;;;;;;6252127;22;20059;-84
2022/11/06 09:12:39;;;;;;;14.32;9.18;;;7.40;99.90;;;;;;6250856;23;20094;-84
2022/11/06 09:15:36;;;;;;;12.02;7.93;;;7.90;99.90;;;;;;6245410;23;20027;-84
2022/11/06 09:18:39;;;;;;;14.15;8.23;;;8.00;99.90;;;;;;6245659;23;20028;-81
2022/11/06 09:21:34;;;;;;;9.82;6.30;;;8.60;99.90;;;;;;6245482;22;20032;-80
2022/11/06 09:24:24;;;;;;;8.77;6.15;;;8.90;99.90;;;;;;6244673;23;20035;-80
2022/11/06 09:27:50;;;;;;;9.75;6.78;;;8.80;99.90;;;;;;6246378;22;20089;-81
2022/11/06 09:30:57;;;;;;;10.57;8.05;;;9.00;99.90;;;;;;6244510;23;20028;-81
2022/11/06 09:33:50;;;;;;;10.02;6.53;;;9.30;99.90;;;;;;6248023;23;20020;-80
2022/11/06 09:36:41;;;;;;;7.95;6.25;;;9.60;99.90;;;;;;6230139;22;20370;-80
2022/11/06 09:39:33;;;;;;;5.65;4.50;;;10.30;99.90;;;;;;6245779;23;20039;-80
2022/11/06 09:42:55;;;;;;;6.05;4.97;;;11.20;99.90;;;;;;6254893;23;20034;-81
2022/11/06 09:46:24;;;;;;;6.18;4.72;;;12.10;1.00;;;;;;6261244;22;20038;-80
2022/11/06 09:49:30;;;;;;;5.88;4.93;;;13.00;99.90;;;;;;6258721;22;20023;-82
2022/11/06 09:52:51;;;;;;;6.03;5.03;;;13.50;99.90;;;;;;6257030;23;20016;-79
2022/11/06 09:55:51;;;;;;;5.03;4.35;;;14.00;99.90;;;;;;6257742;23;20096;-79
2022/11/06 09:58:44;;;;;;;6.75;4.82;;;14.40;99.90;;;;;;6250089;23;20335;-80
2022/11/06 10:01:53;;;;;;;4.82;4.35;;;14.20;99.90;;;;;;6250230;23;20024;-79
2022/11/06 10:05:10;;;;;;;4.53;4.10;;;13.90;99.90;;;;;;6248732;22;20112;-81
2022/11/06 10:08:06;;;;;;;6.53;4.70;;;13.50;99.90;;;;;;6245692;23;20028;-80
2022/11/06 10:15:22;;;;;;;3.80;3.28;;;13.50;99.90;;;;;;6248519;23;20000;-82
2022/11/06 10:18:26;;;;;;;3.57;3.00;;;13.00;99.90;;;;;;6247795;23;20171;-81
2022/11/06 10:21:19;;;;;;;3.65;2.92;;;12.90;99.90;;;;;;6244739;23;20093;-81
2022/11/06 10:24:30;;;;;;;3.28;2.65;;;12.80;99.90;;;;;;6246272;23;20110;-81
2022/11/06 10:27:29;;;;;;;3.22;2.08;;;13.40;99.90;;;;;;6247185;22;20032;-81
2022/11/06 10:30:18;;;;;;;3.70;2.53;;;13.30;99.90;;;;;;6245321;23;20028;-81
2022/11/06 10:33:33;;;;;;;4.78;2.40;;;12.80;99.90;;;;;;6245454;23;20170;-81
2022/11/06 10:37:10;;;;;;;3.92;2.50;;;12.50;99.90;;;;;;6246127;23;20502;-81
2022/11/06 10:40:13;;;;;;;4.05;3.10;;;12.50;99.90;;;;;;6244375;23;20103;-81
2022/11/06 10:43:25;;;;;;;2.80;2.50;;;12.10;99.90;;;;;;6245849;22;20319;-81
2022/11/06 10:47:08;;;;;;;2.88;2.33;;;12.10;99.90;;;;;;6246484;23;20082;-80
2022/11/06 10:50:01;;;;;;;7.10;4.10;;;12.60;99.90;;;;;;6157329;22;20033;-82
2022/11/06 10:53:32;;;;;;;3.05;2.70;;;12.40;99.90;;;;;;6245357;23;20103;-81
2022/11/06 10:57:03;;;;;;;3.70;3.27;;;12.50;99.90;;;;;;6245252;23;20085;-81
2022/11/06 10:59:51;;;;;;;3.88;2.88;;;12.50;99.90;;;;;;6246714;22;20024;-81
2022/11/06 11:03:15;;;;;;;3.22;2.25;;;12.50;99.90;;;;;;6246436;22;20030;-80
2022/11/06 11:06:08;;;;;;;2.55;2.33;;;12.90;99.90;;;;;;6243637;23;20031;-80
2022/11/06 11:09:00;;;;;;;3.10;2.30;;;12.90;99.90;;;;;;6244206;23;20143;-80
2022/11/06 11:12:02;;;;;;;2.60;2.20;;;13.00;99.90;;;;;;6245370;23;20080;-80
2022/11/06 11:15:24;;;;;;;2.97;2.60;;;13.40;99.90;;;;;;6244710;23;20395;-80
2022/11/06 11:18:13;;;;;;;3.10;2.80;;;13.50;99.90;;;;;;6245102;23;20435;-81
2022/11/06 11:21:53;;;;;;;3.67;2.70;;;13.50;99.90;;;;;;6245909;22;20430;-79
2022/11/06 11:25:04;;;;;;;2.63;2.42;;;13.70;99.90;;;;;;6242960;23;20028;-79
2022/11/06 11:27:54;;;;;;;4.30;2.80;;;14.30;99.90;;;;;;6245711;23;20419;-80
2022/11/06 11:30:53;;;;;;;3.05;2.50;;;14.50;99.90;;;;;;6245060;23;20028;-80
2022/11/06 11:33:56;;;;;;;2.80;2.45;;;14.80;99.90;;;;;;6246433;22;20025;-80
2022/11/06 11:36:59;;;;;;;2.33;2.13;;;15.10;99.40;;;;;;6244940;23;20486;-80
2022/11/06 11:39:47;;;;;;;2.45;2.10;;;15.30;90.60;;;;;;6223520;23;20042;-81
2022/11/06 11:42:34;;;;;;;2.83;2.20;;;15.70;86.80;;;;;;6245549;23;20370;-82
2022/11/06 11:49:32;;;;;;;2.30;2.10;;;16.30;77.10;;;;;;6245687;22;20103;-81
2022/11/06 11:52:21;;;;;;;3.00;2.00;;;16.30;69.30;;;;;;6245439;23;20032;-82
2022/11/06 11:55:36;;;;;;;2.78;2.30;;;16.10;68.10;;;;;;6244487;23;20024;-80
2022/11/06 11:58:36;;;;;;;2.35;1.92;;;16.50;59.20;;;;;;6244395;23;20056;-81
2022/11/06 12:01:40;;;;;;;2.50;2.25;;;17.40;58.90;;;;;;6245210;23;20032;-80
2022/11/06 12:04:47;;;;;;;2.50;2.13;;;17.50;43.90;;;;;;6223058;23;20411;-80
2022/11/06 12:07:43;;;;;;;2.75;2.33;;;16.90;43.60;;;;;;6245464;23;20024;-83
2022/11/06 12:10:44;;;;;;;1.70;1.60;;;17.60;44.50;;;;;;6244375;23;20039;-79
2022/11/06 12:14:28;;;;;;;2.05;1.85;;;17.20;29.20;;;;;;6244332;23;20095;-80
2022/11/06 12:17:39;;;;;;;2.28;2.08;;;17.30;30.90;;;;;;6245021;23;20020;-79
2022/11/06 12:20:35;;;;;;;2.13;1.92;;;17.20;28.40;;;;;;6157973;23;20024;-79
2022/11/06 12:23:41;;;;;;;2.55;2.10;;;16.30;23.90;;;;;;6244205;23;20017;-80
2022/11/06 12:26:34;;;;;;;1.88;1.75;;;15.60;25.30;;;;;;6244274;23;20046;-80
2022/11/06 12:29:50;;;;;;;2.40;2.20;;;15.20;26.20;;;;;;6244966;23;20032;-80
2022/11/06 12:33:15;;;;;;;2.40;2.20;;;14.20;29.70;;;;;;6243610;23;20038;-80
2022/11/06 12:36:07;;;;;;;2.65;2.28;;;13.40;42.00;;;;;;6244607;23;20055;-80
2022/11/06 12:39:44;;;;;;;2.47;2.28;;;13.00;55.60;;;;;;6243983;23;20027;-80
2022/11/06 12:43:18;;;;;;;6.40;2.53;;;13.00;69.10;;;;;;6243787;23;20024;-81
2022/11/06 12:46:47;;;;;;;2.10;1.90;;;12.80;71.40;;;;;;6245105;23;20020;-81
2022/11/06 12:49:58;;;;;;;2.47;2.00;;;12.90;75.50;;;;;;6244301;23;20024;-81
2022/11/06 12:53:35;;;;;;;2.45;2.05;;;14.00;78.60;;;;;;6245293;23;20051;-80
2022/11/06 12:56:56;;;;;;;1.70;1.60;;;14.90;56.70;;;;;;6131668;23;20205;-81
2022/11/06 12:59:53;;;;;;;1.88;1.73;;;15.20;47.50;;;;;;6151629;23;20036;-80
2022/11/06 13:02:52;;;;;;;2.15;1.70;;;14.70;44.00;;;;;;6130876;23;20065;-81
2022/11/06 13:05:55;;;;;;;2.30;1.67;;;14.30;47.50;;;;;;6153172;23;20030;-82
2022/11/06 13:09:41;;;;;;;2.08;1.88;;;13.50;54.70;;;;;;6135844;23;20030;-83
2022/11/06 13:16:23;;;;;;;2.83;2.10;;;12.20;92.40;;;;;;6246411;23;20099;-81
2022/11/06 13:19:19;;;;;;;2.55;2.13;;;11.70;99.90;;;;;;6245955;23;20318;-81
2022/11/06 13:22:43;;;;;;;2.05;1.90;;;11.60;99.90;;;;;;6246720;22;20038;-81
2022/11/06 13:25:53;;;;;;;1.95;1.85;;;11.50;99.90;;;;;;6245439;23;20021;-82
2022/11/06 13:28:54;;;;;;;1.90;1.77;;;11.20;99.90;;;;;;6244863;23;20035;-81
2022/11/06 13:32:05;;;;;;;2.03;1.90;;;10.90;99.90;;;;;;6243898;23;20024;-81
2022/11/06 13:35:01;;;;;;;1.92;1.80;;;10.90;99.90;;;;;;6246317;23;20024;-80
2022/11/06 13:37:59;;;;;;;;;;;10.60;99.90;;;;;;6246119;23;20028;-80
2022/11/06 13:40:57;;;;;;;2.10;1.80;;;10.50;99.90;;;;;;6246617;23;19986;-80
2022/11/06 13:44:14;;;;;;;2.03;1.83;;;10.40;99.90;;;;;;6245436;23;20163;-81
2022/11/06 13:47:57;;;;;;;2.38;1.70;;;10.40;99.90;;;;;;6246499;23;20028;-80
2022/11/06 13:50:54;;;;;;;1.83;1.73;;;10.30;99.90;;;;;;6177176;22;20163;-80
2022/11/06 13:54:21;;;;;;;2.15;1.90;;;10.30;99.90;;;;;;6246298;23;20380;-80
2022/11/06 13:57:59;;;;;;;2.05;1.85;;;10.30;99.90;;;;;;6209247;22;20100;-81
2022/11/06 14:01:08;;;;;;;3.67;1.73;;;10.30;99.90;;;;;;6220817;22;20121;-81
2022/11/06 14:04:26;;;;;;;2.50;2.10;;;10.20;99.90;;;;;;6246966;23;20028;-81
2022/11/06 14:07:31;;;;;;;2.55;2.08;;;10.10;99.90;;;;;;6245077;23;20457;-81
2022/11/06 14:10:30;;;;;;;1.88;1.77;;;10.00;99.90;;;;;;6244450;23;20024;-80
2022/11/06 14:13:24;;;;;;;1.83;1.60;;;9.90;99.90;;;;;;6246472;23;20090;-81
2022/11/06 14:16:20;;;;;;;3.88;2.30;;;9.80;99.90;;;;;;6246546;23;20016;-81
2022/11/06 14:19:20;;;;;;;1.90;1.80;;;9.70;99.90;;;;;;6246776;23;20024;-81
2022/11/06 14:22:07;;;;;;;3.22;2.80;;;9.70;99.90;;;;;;6246547;23;20028;-80
2022/11/06 14:25:19;;;;;;;3.22;2.70;;;9.60;99.90;;;;;;6246798;23;20355;-80
2022/11/06 14:28:27;;;;;;;3.00;2.70;;;9.40;99.90;;;;;;6245312;23;20415;-80
2022/11/06 14:31:53;;;;;;;3.42;3.13;;;9.30;99.90;;;;;;6245176;23;20031;-80
2022/11/06 14:34:41;;;;;;;5.07;3.78;;;9.20;99.90;;;;;;6245964;23;20020;-80
2022/11/06 14:37:41;;;;;;;5.45;3.55;;;9.20;99.90;;;;;;6243503;23;20292;-81
2022/11/06 14:40:31;;;;;;;4.65;3.72;;;9.10;99.90;;;;;;6246276;23;20039;-80
2022/11/06 14:43:34;;;;;;;6.50;3.42;;;9.10;99.90;;;;;;6245096;23;20156;-80
2022/11/06 14:46:28;;;;;;;5.07;3.25;;;9.00;99.90;;;;;;6245557;23;20051;-80
2022/11/06 14:49:45;;;;;;;3.53;2.87;;;9.00;99.90;;;;;;6247186;22;20037;-80
2022/11/06 14:52:54;;;;;;;3.15;2.58;;;9.00;99.90;;;;;;6245687;23;20121;-81
2022/11/06 14:55:55;;;;;;;4.20;2.47;;;9.00;99.90;;;;;;6247660;22;20411;-80
2022/11/06 14:59:43;;;;;;;3.22;2.80;;;9.00;99.90;;;;;;6245421;23;20039;-80
2022/11/06 15:02:47;;;;;;;4.00;2.72;;;9.00;99.90;;;;;;6123605;23;20085;-81
2022/11/06 15:05:42;;;;;;;3.20;2.90;;;9.00;99.90;;;;;;6123576;23;20041;-80
2022/11/06 15:09:05;;;;;;;6.28;3.42;;;9.00;99.90;;;;;;6122851;23;20149;-80
2022/11/06 15:12:08;;;;;;;3.20;2.90;;;9.00;99.90;;;;;;6185807;22;20024;-80
2022/11/06 15:15:04;;;;;;;;;;;8.90;99.90;;;;;;6245072;23;20028;-80
2022/11/06 15:18:14;;;;;;;16.77;5.68;;;8.80;99.90;;;;;;6247567;22;19942;-81
2022/11/06 15:21:16;;;;;;;6.45;5.70;;;8.60;1.00;;;;;;6245960;23;20028;-80
2022/11/06 15:24:52;;;;;;;6.78;5.90;;;8.40;1.00;;;;;;6245235;23;20028;-80
2022/11/06 15:27:46;;;;;;;6.57;5.30;;;8.20;28.60;;;;;;6244114;23;20105;-80
2022/11/06 15:30:50;;;;;;;10.05;6.38;;;8.00;96.80;;;;;;6245156;23;20059;-80
2022/11/06 15:33:58;;;;;;;7.80;5.90;;;7.80;99.90;;;;;;6245346;23;20056;-81
2022/11/06 15:37:22;;;;;;;8.82;6.43;;;7.70;99.90;;;;;;6243348;23;20077;-81
2022/11/06 15:40:28;;;;;;;8.02;6.05;;;7.60;99.90;;;;;;6246056;23;20032;-81
2022/11/06 15:43:53;;;;;;;10.80;7.32;;;7.60;95.50;;;;;;6245731;23;20109;-80
2022/11/06 15:46:57;;;;;;;9.52;6.22;;;7.60;84.00;;;;;;6153591;23;20025;-81
2022/11/06 15:49:44;;;;;;;5.45;4.88;;;7.50;45.10;;;;;;6229447;23;20102;-80
2022/11/06 15:52:34;;;;;;;10.80;8.60;;;7.50;31.00;;;;;;6244731;23;20090;-80